createdAt,value
2023-03-26T00:00:54.514Z,7.68
2023-03-26T00:03:59.107Z,7.66
2023-03-26T00:06:56.028Z,7.65
2023-03-26T00:10:07.698Z,7.63
2023-03-26T00:13:18.964Z,7.63
2023-03-26T00:16:31.014Z,7.63
2023-03-26T00:19:43.256Z,7.65
2023-03-26T00:22:55.429Z,7.68
2023-03-26T00:26:10.974Z,7.72
2023-03-26T00:29:23.117Z,7.79
2023-03-26T00:32:34.282Z,7.87
2023-03-26T00:35:47.316Z,7.96
2023-03-26T00:38:58.518Z,8.05
2023-03-26T00:42:07.433Z,8.14
2023-03-26T00:45:21.514Z,8.21
2023-03-26T00:48:43.883Z,8.27
2023-03-26T00:51:56.903Z,8.31
2023-03-26T00:55:08.579Z,8.33
2023-03-26T00:58:13.485Z,8.34
2023-03-26T01:01:19.118Z,8.35
2023-03-26T01:04:32.172Z,8.37
2023-03-26T01:07:44.911Z,8.39
2023-03-26T01:10:43.849Z,8.41
2023-03-26T01:13:56.304Z,8.44
2023-03-26T01:17:09.323Z,8.45
2023-03-26T01:20:22.332Z,8.46
2023-03-26T01:23:26.549Z,8.47
2023-03-26T01:26:46.919Z,8.46
2023-03-26T01:29:54.825Z,8.43
2023-03-26T01:33:14.106Z,8.41
2023-03-26T01:36:30.661Z,8.42
2023-03-26T01:39:49.349Z,8.43
2023-03-26T01:42:49.359Z,8.46
2023-03-26T01:46:02.172Z,8.51
2023-03-26T01:49:13.520Z,8.57
2023-03-26T01:52:25.456Z,8.62
2023-03-26T01:55:30.236Z,8.67
2023-03-26T01:58:38.311Z,8.73
2023-03-26T02:02:00.085Z,8.79
2023-03-26T02:05:02.025Z,8.84
2023-03-26T02:08:01.912Z,8.87
2023-03-26T02:11:05.267Z,8.91
2023-03-26T02:14:15.416Z,8.92
2023-03-26T02:17:16.935Z,8.93
2023-03-26T02:20:25.950Z,8.92
2023-03-26T02:23:37.493Z,8.93
2023-03-26T02:26:42.072Z,8.91
2023-03-26T02:29:39.987Z,8.90
2023-03-26T02:32:52.516Z,8.87
2023-03-26T02:35:53.719Z,8.84
2023-03-26T02:39:17.226Z,8.81
2023-03-26T02:42:28.038Z,8.79
2023-03-26T02:45:24.492Z,8.76
2023-03-26T02:48:55.860Z,8.72
2023-03-26T02:52:00.050Z,8.68
2023-03-26T02:55:13.477Z,8.66
2023-03-26T02:58:25.553Z,8.63
2023-03-26T03:01:36.369Z,8.62
2023-03-26T03:04:47.375Z,8.64
2023-03-26T03:07:58.656Z,8.66
2023-03-26T03:11:11.235Z,8.67
2023-03-26T03:14:12.909Z,8.68
2023-03-26T03:17:23.983Z,8.71
2023-03-26T03:20:36.181Z,8.76
2023-03-26T03:23:47.644Z,8.79
2023-03-26T03:27:00.333Z,8.79
2023-03-26T03:30:12.799Z,8.79
2023-03-26T03:33:29.777Z,8.77
2023-03-26T03:36:41.091Z,8.74
2023-03-26T03:39:51.843Z,8.70
2023-03-26T03:43:03.212Z,8.66
2023-03-26T03:46:14.461Z,8.62
2023-03-26T03:49:23.835Z,8.59
2023-03-26T03:52:35.221Z,8.56
2023-03-26T03:55:53.140Z,8.53
2023-03-26T03:59:04.796Z,8.49
2023-03-26T04:02:26.625Z,8.47
2023-03-26T04:05:31.164Z,8.46
2023-03-26T04:08:42.127Z,8.47
2023-03-26T04:11:52.879Z,8.49
2023-03-26T04:15:04.416Z,8.52
2023-03-26T04:18:15.194Z,8.57
2023-03-26T04:21:26.568Z,8.61
2023-03-26T04:24:38.495Z,8.63
2023-03-26T04:27:48.243Z,8.65
2023-03-26T04:31:05.835Z,8.65
2023-03-26T04:34:24.730Z,8.64
2023-03-26T04:37:44.445Z,8.62
2023-03-26T04:40:42.518Z,8.60
2023-03-26T04:43:56.924Z,8.57
2023-03-26T04:47:10.440Z,8.54
2023-03-26T04:50:21.263Z,8.52
2023-03-26T04:53:32.476Z,8.49
2023-03-26T04:56:52.630Z,8.48
2023-03-26T05:00:18.640Z,8.49
2023-03-26T05:03:39.417Z,8.51
2023-03-26T05:06:46.482Z,8.52
2023-03-26T05:09:57.892Z,8.56
2023-03-26T05:13:18.094Z,8.59
2023-03-26T05:16:31.968Z,8.61
2023-03-26T05:19:42.794Z,8.62
2023-03-26T05:22:54.373Z,8.62
2023-03-26T05:26:10.450Z,8.62
2023-03-26T05:29:22.910Z,8.61
2023-03-26T05:32:34.013Z,8.59
2023-03-26T05:35:59.603Z,8.55
2023-03-26T05:39:06.244Z,8.51
2023-03-26T05:42:32.974Z,8.47
2023-03-26T05:45:44.187Z,8.42
2023-03-26T05:49:01.186Z,8.38
2023-03-26T05:52:15.347Z,8.35
2023-03-26T05:55:35.383Z,8.31
2023-03-26T05:58:45.179Z,8.28
2023-03-26T06:01:56.586Z,8.28
2023-03-26T06:05:12.548Z,8.28
2023-03-26T06:08:29.918Z,8.29
2023-03-26T06:11:41.087Z,8.31
2023-03-26T06:14:43.102Z,8.33
2023-03-26T06:17:56.930Z,8.37
2023-03-26T06:21:26.134Z,8.41
2023-03-26T06:24:37.163Z,8.45
2023-03-26T06:27:46.193Z,8.49
2023-03-26T06:31:02.794Z,8.49
2023-03-26T06:34:20.245Z,8.44
2023-03-26T06:37:31.390Z,8.41
2023-03-26T06:40:31.415Z,8.37
2023-03-26T06:43:44.827Z,8.34
2023-03-26T06:46:53.899Z,8.31
2023-03-26T06:50:03.560Z,8.27
2023-03-26T06:53:23.240Z,8.24
2023-03-26T06:56:38.430Z,8.24
2023-03-26T06:59:52.102Z,8.27
2023-03-26T07:03:01.430Z,8.33
2023-03-26T07:06:11.099Z,8.41
2023-03-26T07:09:20.243Z,8.49
2023-03-26T07:12:29.241Z,8.53
2023-03-26T07:15:49.955Z,8.58
2023-03-26T07:19:07.199Z,8.58
2023-03-26T07:22:22.487Z,8.56
2023-03-26T07:25:50.195Z,8.52
2023-03-26T07:29:07.868Z,8.51
2023-03-26T07:32:28.700Z,8.49
2023-03-26T07:35:55.154Z,8.50
2023-03-26T07:39:15.207Z,8.50
2023-03-26T07:42:35.701Z,8.51
2023-03-26T07:45:46.491Z,8.52
2023-03-26T07:49:04.785Z,8.55
2023-03-26T07:52:16.527Z,8.61
2023-03-26T07:55:38.652Z,8.66
2023-03-26T07:58:57.644Z,8.69
2023-03-26T08:02:42.497Z,8.71
2023-03-26T08:06:15.963Z,8.73
2023-03-26T08:09:21.225Z,8.73
2023-03-26T08:12:48.641Z,8.73
2023-03-26T08:15:57.146Z,8.74
2023-03-26T08:19:17.465Z,8.79
2023-03-26T08:22:37.355Z,8.80
2023-03-26T08:26:27.458Z,8.75
2023-03-26T08:29:51.014Z,8.72
2023-03-26T08:33:04.861Z,8.76
2023-03-26T08:36:01.414Z,8.83
2023-03-26T08:39:06.375Z,8.86
2023-03-26T08:42:34.335Z,8.86
2023-03-26T08:46:08.003Z,8.85
2023-03-26T08:49:38.280Z,8.82
2023-03-26T08:53:08.334Z,8.75
2023-03-26T08:56:14.624Z,8.66
2023-03-26T08:59:27.717Z,8.63
2023-03-26T09:02:54.482Z,8.61
2023-03-26T09:06:09.618Z,8.62
2023-03-26T09:09:34.765Z,8.66
2023-03-26T09:12:59.911Z,8.78
2023-03-26T09:16:28.196Z,8.94
2023-03-26T09:19:53.465Z,9.13
2023-03-26T09:23:15.120Z,9.36
2023-03-26T09:26:31.471Z,9.45
2023-03-26T09:29:58.475Z,9.40
2023-03-26T09:33:28.260Z,9.30
2023-03-26T09:36:53.753Z,9.17
2023-03-26T09:39:53.581Z,9.04
2023-03-26T09:43:00.798Z,8.92
2023-03-26T09:46:09.822Z,8.85
2023-03-26T09:49:24.659Z,8.79
2023-03-26T09:52:46.417Z,8.73
2023-03-26T09:56:04.846Z,8.74
2023-03-26T09:59:11.201Z,8.80
2023-03-26T10:02:46.298Z,8.87
2023-03-26T10:06:07.018Z,8.94
2023-03-26T10:09:20.764Z,9.01
2023-03-26T10:12:29.741Z,9.00
2023-03-26T10:15:38.578Z,8.93
2023-03-26T10:18:54.596Z,8.86
2023-03-26T10:22:11.703Z,8.82
2023-03-26T10:25:28.692Z,8.78
2023-03-26T10:28:35.785Z,8.78
2023-03-26T10:31:48.203Z,8.79
2023-03-26T10:34:58.287Z,8.88
2023-03-26T10:38:03.780Z,8.96
2023-03-26T10:41:18.110Z,8.90
2023-03-26T10:44:43.720Z,8.80
2023-03-26T10:48:14.094Z,8.69
2023-03-26T10:51:40.863Z,8.56
2023-03-26T10:54:55.082Z,8.48
2023-03-26T10:58:12.306Z,8.45
2023-03-26T11:01:30.084Z,8.49
2023-03-26T11:04:45.394Z,8.47
2023-03-26T11:08:02.237Z,8.39
2023-03-26T11:11:19.469Z,8.33
2023-03-26T11:14:34.881Z,8.31
2023-03-26T11:17:51.801Z,8.27
2023-03-26T11:21:19.854Z,8.25
2023-03-26T11:24:36.250Z,8.25
2023-03-26T11:27:55.228Z,8.26
2023-03-26T11:31:03.597Z,8.33
2023-03-26T11:34:17.414Z,8.50
2023-03-26T11:37:31.341Z,8.66
2023-03-26T11:40:36.215Z,8.84
2023-03-26T11:43:50.109Z,8.99
2023-03-26T11:46:59.050Z,9.05
2023-03-26T11:50:17.068Z,9.08
2023-03-26T11:53:27.687Z,9.12
2023-03-26T11:57:04.819Z,9.29
2023-03-26T12:00:18.515Z,9.43
2023-03-26T12:03:30.514Z,9.51
2023-03-26T12:06:51.488Z,9.60
2023-03-26T12:10:18.169Z,9.62
2023-03-26T12:13:34.876Z,9.59
2023-03-26T12:16:59.242Z,9.54
2023-03-26T12:26:46.774Z,9.42
2023-03-26T12:29:46.586Z,9.40
2023-03-26T12:33:00.300Z,9.50
2023-03-26T12:36:19.532Z,9.72
2023-03-26T12:40:10.698Z,9.98
2023-03-26T12:44:55.725Z,10.15
2023-03-26T12:47:55.272Z,10.27
2023-03-26T12:49:49.494Z,10.30
2023-03-26T12:53:00.442Z,10.23
2023-03-26T12:56:15.717Z,10.15
2023-03-26T12:59:42.724Z,10.24
2023-03-26T13:03:00.326Z,10.34
2023-03-26T13:06:06.930Z,10.48
2023-03-26T13:09:24.027Z,10.59
2023-03-26T13:12:21.473Z,10.63
2023-03-26T13:15:24.969Z,10.87
2023-03-26T13:18:22.065Z,11.71
2023-03-26T13:21:19.634Z,12.16
2023-03-26T13:24:24.825Z,12.37
2023-03-26T13:27:20.054Z,12.29
2023-03-26T13:30:27.340Z,12.14
2023-03-26T13:33:33.896Z,12.00
2023-03-26T13:36:32.096Z,11.93
2023-03-26T13:39:36.247Z,11.86
2023-03-26T13:42:37.880Z,12.06
2023-03-26T13:45:35.235Z,12.49
2023-03-26T13:48:30.344Z,12.92
2023-03-26T13:51:36.382Z,13.29
2023-03-26T13:54:29.882Z,13.48
2023-03-26T13:57:24.949Z,13.62
2023-03-26T14:00:18.540Z,13.62
2023-03-26T14:03:17.754Z,13.42
2023-03-26T14:06:13.443Z,13.29
2023-03-26T14:09:05.204Z,13.17
2023-03-26T14:12:27.050Z,13.33
2023-03-26T14:15:21.138Z,13.77
2023-03-26T14:18:17.196Z,14.59
2023-03-26T14:21:25.079Z,15.72
2023-03-26T14:24:34.559Z,15.78
2023-03-26T14:27:35.222Z,16.05
2023-03-26T14:30:38.524Z,15.87
2023-03-26T14:33:38.648Z,15.56
2023-03-26T14:36:41.976Z,16.42
2023-03-26T14:39:51.489Z,16.28
2023-03-26T14:42:43.646Z,15.75
2023-03-26T14:45:44.654Z,15.05
2023-03-26T14:48:51.426Z,14.41
2023-03-26T14:51:51.505Z,13.85
2023-03-26T14:54:45.888Z,13.45
2023-03-26T14:57:49.718Z,13.17
2023-03-26T15:01:04.351Z,13.05
2023-03-26T15:04:11.752Z,12.95
2023-03-26T15:07:15.884Z,12.85
2023-03-26T15:10:27.402Z,12.91
2023-03-26T15:13:31.096Z,13.01
2023-03-26T15:16:41.656Z,13.12
2023-03-26T15:19:56.687Z,13.15
2023-03-26T15:23:17.553Z,13.12
2023-03-26T15:26:42.583Z,13.01
2023-03-26T15:29:49.452Z,12.78
2023-03-26T15:32:57.589Z,12.55
2023-03-26T15:36:03.714Z,12.34
2023-03-26T15:39:19.704Z,12.30
2023-03-26T15:42:27.342Z,12.27
2023-03-26T15:45:35.482Z,12.26
2023-03-26T15:48:47.615Z,12.21
2023-03-26T15:51:49.431Z,12.13
2023-03-26T15:54:59.575Z,12.05
2023-03-26T15:58:13.833Z,12.00
2023-03-26T16:01:10.903Z,11.99
2023-03-26T16:04:23.153Z,11.90
2023-03-26T16:07:51.119Z,11.79
2023-03-26T16:10:53.834Z,11.74
2023-03-26T16:14:12.653Z,11.76
2023-03-26T16:17:13.150Z,11.74
2023-03-26T16:20:31.332Z,11.67
2023-03-26T16:23:53.929Z,11.55
2023-03-26T16:26:56.323Z,11.40
2023-03-26T16:30:09.755Z,11.30
2023-03-26T16:33:10.537Z,11.21
2023-03-26T16:36:26.190Z,11.10
2023-03-26T16:39:39.113Z,10.93
2023-03-26T16:42:41.037Z,10.75
2023-03-26T16:45:50.513Z,10.56
2023-03-26T16:49:05.224Z,10.42
2023-03-26T16:52:26.855Z,10.31
2023-03-26T16:55:42.914Z,10.18
2023-03-26T16:58:58.942Z,10.03
2023-03-26T17:01:57.466Z,9.87
2023-03-26T17:05:34.358Z,9.71
2023-03-26T17:08:35.527Z,9.62
2023-03-26T17:11:48.906Z,9.55
2023-03-26T17:14:49.455Z,9.49
2023-03-26T17:17:52.937Z,9.47
2023-03-26T17:21:02.413Z,9.45
2023-03-26T17:24:15.168Z,9.38
2023-03-26T17:27:34.308Z,9.32
2023-03-26T17:30:57.182Z,9.27
2023-03-26T17:33:55.819Z,9.21
2023-03-26T17:37:00.135Z,9.15
2023-03-26T17:40:36.020Z,9.07
2023-03-26T17:43:48.544Z,9.00
2023-03-26T17:47:01.882Z,8.94
2023-03-26T17:50:16.288Z,8.89
2023-03-26T17:53:22.509Z,8.84
2023-03-26T17:56:29.013Z,8.80
2023-03-26T17:59:42.212Z,8.75
2023-03-26T18:02:57.526Z,8.72
2023-03-26T18:06:09.788Z,8.69
2023-03-26T18:09:34.654Z,8.66
2023-03-26T18:12:57.926Z,8.63
2023-03-26T18:16:13.998Z,8.57
2023-03-26T18:19:19.618Z,8.53
2023-03-26T18:22:25.054Z,8.48
2023-03-26T18:25:28.583Z,8.46
2023-03-26T18:28:42.815Z,8.43
2023-03-26T18:31:48.178Z,8.40
2023-03-26T18:35:00.948Z,8.35
2023-03-26T18:38:14.564Z,8.29
2023-03-26T18:41:09.860Z,8.23
2023-03-26T18:44:20.209Z,8.19
2023-03-26T18:47:30.618Z,8.16
2023-03-26T18:50:43.132Z,8.11
2023-03-26T18:53:50.547Z,8.08
2023-03-26T18:57:14.920Z,8.05
2023-03-26T19:00:30.451Z,8.03
2023-03-26T19:03:36.913Z,8.02
2023-03-26T19:06:43.835Z,7.99
2023-03-26T19:09:58.186Z,7.97
2023-03-26T19:13:22.144Z,7.95
2023-03-26T19:16:30.012Z,7.94
2023-03-26T19:19:43.468Z,7.94
2023-03-26T19:23:44.433Z,7.92
2023-03-26T19:26:29.802Z,7.91
2023-03-26T19:29:52.956Z,7.89
2023-03-26T19:33:13.505Z,7.86
2023-03-26T19:36:26.528Z,7.82
2023-03-26T19:39:40.567Z,7.79
2023-03-26T19:42:56.391Z,7.78
2023-03-26T19:46:08.708Z,7.77
2023-03-26T19:49:28.563Z,7.77
2023-03-26T19:52:34.281Z,7.76
2023-03-26T19:55:53.632Z,7.72
2023-03-26T19:59:05.329Z,7.69
2023-03-26T20:02:16.206Z,7.63
2023-03-26T20:05:28.979Z,7.55
2023-03-26T20:08:41.131Z,7.49
2023-03-26T20:11:52.723Z,7.40
2023-03-26T20:15:03.416Z,7.32
2023-03-26T20:18:14.159Z,7.22
2023-03-26T20:21:18.545Z,7.11
2023-03-26T20:24:21.607Z,7.01
2023-03-26T20:27:31.463Z,6.91
2023-03-26T20:30:42.402Z,6.83
2023-03-26T20:33:54.314Z,6.74
2023-03-26T20:37:05.876Z,6.67
2023-03-26T20:40:15.818Z,6.60
2023-03-26T20:43:30.295Z,6.53
2023-03-26T20:46:33.515Z,6.47
2023-03-26T20:49:46.255Z,6.42
2023-03-26T20:52:59.974Z,6.36
2023-03-26T20:56:15.578Z,6.29
2023-03-26T20:59:29.807Z,6.23
2023-03-26T21:02:36.309Z,6.16
2023-03-26T21:05:52.537Z,6.10
2023-03-26T21:09:04.306Z,6.03
2023-03-26T21:12:09.829Z,5.96
2023-03-26T21:15:24.404Z,5.90
2023-03-26T21:18:35.604Z,5.83
2023-03-26T21:22:03.171Z,5.78
2023-03-26T21:25:13.304Z,5.73
2023-03-26T21:28:42.560Z,5.69
2023-03-26T21:31:46.999Z,5.64
2023-03-26T21:34:55.746Z,5.61
2023-03-26T21:38:13.258Z,5.56
2023-03-26T21:41:36.385Z,5.51
2023-03-26T21:44:47.815Z,5.46
2023-03-26T21:47:58.446Z,5.42
2023-03-26T21:51:17.734Z,5.40
2023-03-26T21:54:42.048Z,5.37
2023-03-26T21:57:51.197Z,5.32
2023-03-26T22:04:34.066Z,5.23
2023-03-26T22:07:51.964Z,5.19
2023-03-26T22:11:08.493Z,5.14
2023-03-26T22:14:23.647Z,5.09
2023-03-26T22:17:35.947Z,5.03
2023-03-26T22:20:47.347Z,4.99
2023-03-26T22:23:58.299Z,4.95
2023-03-26T22:27:10.159Z,4.95
2023-03-26T22:30:21.980Z,4.96
2023-03-26T22:33:33.243Z,4.99
2023-03-26T22:36:44.318Z,4.99
2023-03-26T22:39:55.534Z,4.99
2023-03-26T22:43:07.823Z,4.99
2023-03-26T22:46:19.167Z,4.98
2023-03-26T22:49:31.561Z,4.94
2023-03-26T22:52:51.124Z,4.86
2023-03-26T22:56:02.290Z,4.78
2023-03-26T22:59:13.582Z,4.68
2023-03-26T23:02:24.310Z,4.60
2023-03-26T23:05:35.206Z,4.51
2023-03-26T23:08:46.350Z,4.41
2023-03-26T23:11:51.927Z,4.32
2023-03-26T23:14:53.777Z,4.25
2023-03-26T23:18:04.917Z,4.20
2023-03-26T23:21:20.031Z,4.14
2023-03-26T23:24:31.303Z,4.09
2023-03-26T23:31:14.633Z,3.99
2023-03-26T23:34:25.379Z,3.95
2023-03-26T23:37:36.253Z,3.90
2023-03-26T23:40:57.300Z,3.84
2023-03-26T23:44:17.394Z,3.79
2023-03-26T23:47:34.472Z,3.76
2023-03-26T23:50:48.353Z,3.74
2023-03-26T23:53:59.928Z,3.70
2023-03-26T23:57:11.480Z,3.65
